createdAt,value
2022-08-21T00:02:16.795Z,98889.75
2022-08-21T00:05:21.052Z,98903.94
2022-08-21T00:08:24.353Z,98912.44
2022-08-21T00:11:28.108Z,98921.09
2022-08-21T00:14:33.607Z,98919.41
2022-08-21T00:17:37.123Z,98901.47
2022-08-21T00:20:41.389Z,98900.19
2022-08-21T00:23:45.598Z,98893.00
2022-08-21T00:26:49.124Z,98897.81
2022-08-21T00:29:54.580Z,98896.44
2022-08-21T00:32:59.301Z,98881.66
2022-08-21T00:36:03.035Z,98883.91
2022-08-21T00:39:06.743Z,98894.31
2022-08-21T00:42:10.009Z,98895.19
2022-08-21T00:45:14.762Z,98870.75
2022-08-21T00:48:18.419Z,98864.34
2022-08-21T00:51:26.940Z,98865.19
2022-08-21T00:54:33.283Z,98870.31
2022-08-21T00:57:41.755Z,98877.47
2022-08-21T01:00:49.241Z,98879.44
2022-08-21T01:03:52.917Z,98875.34
2022-08-21T01:06:56.373Z,98873.88
2022-08-21T01:10:00.139Z,98875.47
2022-08-21T01:13:03.852Z,98868.66
2022-08-21T01:16:12.016Z,98849.50
2022-08-21T01:19:16.083Z,98837.28
2022-08-21T01:22:21.356Z,98841.66
2022-08-21T01:25:24.812Z,98837.16
2022-08-21T01:28:31.454Z,98826.28
2022-08-21T01:31:34.932Z,98835.91
2022-08-21T01:34:41.707Z,98823.25
2022-08-21T01:37:47.097Z,98826.31
2022-08-21T01:40:50.458Z,98824.22
2022-08-21T01:43:53.891Z,98824.53
2022-08-21T01:46:59.517Z,98830.88
2022-08-21T01:50:03.388Z,98832.59
2022-08-21T01:53:08.199Z,98842.22
2022-08-21T01:56:14.189Z,98853.38
2022-08-21T01:59:17.950Z,98872.34
2022-08-21T02:02:21.319Z,98905.22
2022-08-21T02:05:24.627Z,98914.38
2022-08-21T02:08:30.207Z,98929.94
2022-08-21T02:11:34.029Z,98920.88
2022-08-21T02:14:37.396Z,98909.72
2022-08-21T02:17:43.142Z,98907.81
2022-08-21T02:20:49.219Z,98909.66
2022-08-21T02:24:00.767Z,98906.50
2022-08-21T02:27:04.138Z,98916.16
2022-08-21T02:30:08.321Z,98921.31
2022-08-21T02:33:13.178Z,98925.28
2022-08-21T02:36:16.515Z,98922.13
2022-08-21T02:39:27.044Z,98923.34
2022-08-21T02:42:31.425Z,98935.75
2022-08-21T02:45:36.239Z,98938.25
2022-08-21T02:48:39.863Z,98943.88
2022-08-21T02:51:43.122Z,98941.69
2022-08-21T02:54:48.025Z,98941.31
2022-08-21T02:57:51.932Z,98940.69
2022-08-21T03:00:55.684Z,98923.66
2022-08-21T03:03:58.992Z,98918.38
2022-08-21T03:07:02.457Z,98926.31
2022-08-21T03:10:08.662Z,98919.34
2022-08-21T03:13:13.059Z,98927.31
2022-08-21T03:16:16.497Z,98934.63
2022-08-21T03:19:19.802Z,98941.03
2022-08-21T03:22:23.076Z,98936.97
2022-08-21T03:25:40.033Z,98933.50
2022-08-21T03:28:44.359Z,98927.31
2022-08-21T03:31:47.582Z,98925.72
2022-08-21T03:34:52.512Z,98939.50
2022-08-21T03:37:56.433Z,98935.97
2022-08-21T03:41:01.544Z,98930.28
2022-08-21T03:44:05.481Z,98941.94
2022-08-21T03:47:08.916Z,98938.88
2022-08-21T03:50:12.223Z,98947.78
2022-08-21T03:53:17.910Z,98944.69
2022-08-21T03:56:22.841Z,98950.63
2022-08-21T03:59:26.163Z,98949.75
2022-08-21T04:02:30.356Z,98944.00
2022-08-21T04:05:34.096Z,98949.81
2022-08-21T04:08:37.546Z,98951.03
2022-08-21T04:11:42.339Z,98958.88
2022-08-21T04:14:45.649Z,98952.09
2022-08-21T04:17:49.409Z,98957.53
2022-08-21T04:20:55.903Z,98958.97
2022-08-21T04:24:00.266Z,98962.13
2022-08-21T04:27:06.308Z,98958.88
2022-08-21T04:30:10.987Z,98955.28
2022-08-21T04:33:14.292Z,98958.88
2022-08-21T04:36:17.557Z,98958.88
2022-08-21T04:39:29.508Z,98949.81
2022-08-21T04:42:34.678Z,98946.41
2022-08-21T04:45:40.546Z,98936.16
2022-08-21T04:48:43.917Z,98942.97
2022-08-21T04:51:47.191Z,98934.16
2022-08-21T04:54:54.921Z,98929.34
2022-08-21T04:58:00.384Z,98923.50
2022-08-21T05:01:06.160Z,98917.56
2022-08-21T05:04:12.649Z,98925.44
2022-08-21T05:07:42.223Z,98921.75
2022-08-21T05:10:45.479Z,98919.91
2022-08-21T05:13:54.972Z,98927.56
2022-08-21T05:17:00.979Z,98916.56
2022-08-21T05:20:04.953Z,98919.38
2022-08-21T05:23:11.344Z,98907.25
2022-08-21T05:26:18.368Z,98902.28
2022-08-21T05:29:23.532Z,98907.03
2022-08-21T05:32:28.855Z,98908.94
2022-08-21T05:35:33.307Z,98906.31
2022-08-21T05:38:36.594Z,98904.97
2022-08-21T05:41:39.867Z,98913.69
2022-08-21T05:44:44.848Z,98917.19
2022-08-21T05:47:48.723Z,98924.41
2022-08-21T05:50:53.335Z,98922.84
2022-08-21T05:53:56.656Z,98918.03
2022-08-21T05:57:00.112Z,98923.44
2022-08-21T06:00:06.216Z,98922.13
2022-08-21T06:03:19.066Z,98924.25
2022-08-21T06:06:22.369Z,98929.84
2022-08-21T06:09:25.663Z,98941.00
2022-08-21T06:12:29.097Z,98937.13
2022-08-21T06:15:33.819Z,98940.91
2022-08-21T06:18:38.229Z,98939.13
2022-08-21T06:21:41.573Z,98945.09
2022-08-21T06:24:44.808Z,98945.63
2022-08-21T06:27:48.143Z,98943.47
2022-08-21T06:30:52.936Z,98943.16
2022-08-21T06:33:57.528Z,98938.88
2022-08-21T06:37:00.731Z,98936.50
2022-08-21T06:40:04.582Z,98932.44
2022-08-21T06:43:10.319Z,98932.69
2022-08-21T06:46:15.017Z,98928.38
2022-08-21T06:49:21.261Z,98928.88
2022-08-21T06:52:25.185Z,98924.09
2022-08-21T06:55:29.251Z,98917.50
2022-08-21T06:58:32.775Z,98908.75
2022-08-21T07:01:37.625Z,98916.28
2022-08-21T07:04:40.993Z,98911.47
2022-08-21T07:07:44.326Z,98911.53
2022-08-21T07:10:48.394Z,98907.75
2022-08-21T07:13:53.376Z,98906.28
2022-08-21T07:16:58.075Z,98905.50
2022-08-21T07:20:01.435Z,98909.28
2022-08-21T07:23:07.274Z,98909.50
2022-08-21T07:26:12.711Z,98909.31
2022-08-21T07:29:16.035Z,98910.94
2022-08-21T07:32:21.460Z,98906.94
2022-08-21T07:35:25.523Z,98906.69
2022-08-21T07:38:29.091Z,98896.63
2022-08-21T07:41:33.113Z,98892.91
2022-08-21T07:44:36.532Z,98889.91
2022-08-21T07:47:47.376Z,98883.31
2022-08-21T07:50:52.141Z,98895.00
2022-08-21T07:53:57.322Z,98893.72
2022-08-21T07:57:00.603Z,98898.81
2022-08-21T08:00:04.565Z,98897.91
2022-08-21T08:03:22.560Z,98907.00
2022-08-21T08:06:32.723Z,98904.81
2022-08-21T08:09:37.279Z,98906.41
2022-08-21T08:12:42.869Z,98890.03
2022-08-21T08:15:46.328Z,98897.56
2022-08-21T08:18:52.510Z,98890.59
2022-08-21T08:21:55.837Z,98886.34
2022-08-21T08:25:00.714Z,98884.19
2022-08-21T08:28:06.830Z,98883.88
2022-08-21T08:31:20.166Z,98889.00
2022-08-21T08:34:25.723Z,98889.47
2022-08-21T08:37:31.478Z,98877.72
2022-08-21T08:40:45.105Z,98873.47
2022-08-21T08:43:52.945Z,98873.56
2022-08-21T08:46:58.196Z,98869.03
2022-08-21T08:50:06.382Z,98865.84
2022-08-21T08:53:16.558Z,98865.41
2022-08-21T08:56:24.692Z,98864.06
2022-08-21T08:59:34.864Z,98860.25
2022-08-21T09:02:40.327Z,98855.19
2022-08-21T09:05:48.080Z,98861.19
2022-08-21T09:09:03.773Z,98856.97
2022-08-21T09:12:14.341Z,98855.59
2022-08-21T09:15:26.158Z,98849.34
2022-08-21T09:18:41.007Z,98850.50
2022-08-21T09:21:55.823Z,98845.63
2022-08-21T09:25:08.895Z,98839.69
2022-08-21T09:28:15.712Z,98842.06
2022-08-21T09:31:25.539Z,98836.47
2022-08-21T09:34:32.285Z,98832.69
2022-08-21T09:37:47.867Z,98829.25
2022-08-21T09:40:59.989Z,98830.03
2022-08-21T09:44:04.025Z,98822.19
2022-08-21T09:47:07.496Z,98818.00
2022-08-21T09:50:14.114Z,98816.41
2022-08-21T09:53:22.620Z,98820.69
2022-08-21T09:56:49.083Z,98818.50
2022-08-21T09:59:52.368Z,98822.00
2022-08-21T10:02:55.781Z,98833.53
2022-08-21T10:06:02.883Z,98833.25
2022-08-21T10:09:17.915Z,98840.72
2022-08-21T10:12:27.466Z,98838.19
2022-08-21T10:15:42.325Z,98829.69
2022-08-21T10:18:57.350Z,98834.81
2022-08-21T10:22:07.349Z,98834.28
2022-08-21T10:25:20.016Z,98830.00
2022-08-21T10:28:33.160Z,98833.50
2022-08-21T10:31:48.640Z,98826.81
2022-08-21T10:34:58.781Z,98835.13
2022-08-21T10:39:07.389Z,98835.66
2022-08-21T10:42:28.471Z,98828.38
2022-08-21T10:45:53.034Z,98841.84
2022-08-21T10:49:00.593Z,98843.00
2022-08-21T10:52:28.417Z,98838.63
2022-08-21T10:55:37.684Z,98844.06
2022-08-21T10:58:47.997Z,98842.72
2022-08-21T11:01:58.331Z,98842.84
2022-08-21T11:05:07.899Z,98845.25
2022-08-21T11:08:14.701Z,98845.41
2022-08-21T11:11:34.799Z,98842.06
2022-08-21T11:14:52.196Z,98839.97
2022-08-21T11:18:01.976Z,98837.75
2022-08-21T11:21:17.792Z,98833.78
2022-08-21T11:24:31.493Z,98829.75
2022-08-21T11:27:42.518Z,98828.41
2022-08-21T11:30:55.145Z,98822.75
2022-08-21T11:34:23.604Z,98823.03
2022-08-21T11:37:45.244Z,98828.00
2022-08-21T11:41:03.843Z,98826.25
2022-08-21T11:44:19.846Z,98816.06
2022-08-21T11:47:38.135Z,98819.00
2022-08-21T11:50:45.412Z,98815.81
2022-08-21T11:53:56.209Z,98811.00
2022-08-21T11:57:04.156Z,98811.28
2022-08-21T12:00:13.367Z,98809.97
2022-08-21T12:03:27.705Z,98798.59
2022-08-21T12:06:34.011Z,98811.78
2022-08-21T12:09:38.790Z,98800.03
2022-08-21T12:12:44.184Z,98796.81
2022-08-21T12:15:47.530Z,98789.47
2022-08-21T12:19:04.376Z,98786.91
2022-08-21T12:22:12.746Z,98785.25
2022-08-21T12:25:22.034Z,98780.47
2022-08-21T12:28:27.036Z,98781.56
2022-08-21T12:31:30.753Z,98780.44
2022-08-21T12:34:40.360Z,98774.31
2022-08-21T12:37:47.477Z,98775.13
2022-08-21T12:40:55.839Z,98767.88
2022-08-21T12:44:03.192Z,98773.47
2022-08-21T12:47:09.003Z,98769.69
2022-08-21T12:50:15.775Z,98764.56
2022-08-21T12:53:28.471Z,98760.88
2022-08-21T12:56:35.050Z,98752.66
2022-08-21T12:59:41.172Z,98748.66
2022-08-21T13:02:49.410Z,98751.31
2022-08-21T13:05:55.367Z,98739.47
2022-08-21T13:09:07.242Z,98747.78
2022-08-21T13:12:10.917Z,98747.09
2022-08-21T13:15:15.801Z,98753.16
2022-08-21T13:18:23.815Z,98753.19
2022-08-21T13:21:34.044Z,98750.69
2022-08-21T13:24:42.888Z,98746.16
2022-08-21T13:27:58.485Z,98750.69
2022-08-21T13:31:02.583Z,98753.31
2022-08-21T13:34:06.557Z,98744.81
2022-08-21T13:37:13.983Z,98738.63
2022-08-21T13:40:21.887Z,98746.41
2022-08-21T13:43:30.775Z,98742.47
2022-08-21T13:46:38.019Z,98745.53
2022-08-21T13:49:44.698Z,98732.75
2022-08-21T13:52:59.722Z,98736.31
2022-08-21T13:56:05.741Z,98740.56
2022-08-21T13:59:09.196Z,98742.06
2022-08-21T14:02:16.550Z,98736.47
2022-08-21T14:05:24.693Z,98734.44
2022-08-21T14:08:33.500Z,98734.22
2022-08-21T14:11:37.819Z,98728.66
2022-08-21T14:14:42.306Z,98731.06
2022-08-21T14:17:46.654Z,98729.50
2022-08-21T14:20:50.325Z,98724.28
2022-08-21T14:24:05.350Z,98711.47
2022-08-21T14:27:09.883Z,98706.22
2022-08-21T14:30:19.500Z,98707.03
2022-08-21T14:33:29.555Z,98696.81
2022-08-21T14:36:33.284Z,98696.94
2022-08-21T14:39:38.095Z,98697.97
2022-08-21T14:42:42.708Z,98697.00
2022-08-21T14:45:46.141Z,98692.56
2022-08-21T14:48:50.121Z,98690.72
2022-08-21T14:51:58.020Z,98680.50
2022-08-21T14:55:03.012Z,98692.78
2022-08-21T14:58:06.355Z,98686.19
2022-08-21T15:01:10.942Z,98692.78
2022-08-21T15:04:14.507Z,98687.63
2022-08-21T15:07:17.792Z,98686.91
2022-08-21T15:10:22.518Z,98683.25
2022-08-21T15:13:26.150Z,98692.13
2022-08-21T15:16:31.308Z,98693.28
2022-08-21T15:19:34.670Z,98681.25
2022-08-21T15:22:38.034Z,98683.69
2022-08-21T15:25:45.893Z,98674.66
2022-08-21T15:28:49.199Z,98677.50
2022-08-21T15:31:55.840Z,98680.34
2022-08-21T15:35:01.212Z,98671.03
2022-08-21T15:38:05.023Z,98672.72
2022-08-21T15:41:10.170Z,98662.84
2022-08-21T15:44:15.375Z,98655.56
2022-08-21T15:47:22.103Z,98646.72
2022-08-21T15:50:27.165Z,98646.66
2022-08-21T15:53:33.048Z,98650.84
2022-08-21T15:56:40.722Z,98641.09
2022-08-21T15:59:46.488Z,98639.91
2022-08-21T16:02:52.760Z,98643.84
2022-08-21T16:05:58.162Z,98638.97
2022-08-21T16:09:01.676Z,98633.25
2022-08-21T16:12:07.946Z,98634.25
2022-08-21T16:15:20.116Z,98625.47
2022-08-21T16:18:26.659Z,98626.53
2022-08-21T16:21:30.107Z,98621.50
2022-08-21T16:24:33.503Z,98615.81
2022-08-21T16:27:39.120Z,98622.81
2022-08-21T16:30:45.795Z,98622.94
2022-08-21T16:33:53.530Z,98626.66
2022-08-21T16:37:00.569Z,98628.78
2022-08-21T16:40:04.644Z,98631.47
2022-08-21T16:43:09.819Z,98627.66
2022-08-21T16:46:15.798Z,98625.56
2022-08-21T16:49:19.145Z,98623.88
2022-08-21T16:52:22.447Z,98626.25
2022-08-21T16:55:26.100Z,98611.75
2022-08-21T16:58:34.132Z,98616.28
2022-08-21T17:01:38.265Z,98619.25
2022-08-21T17:04:41.629Z,98603.75
2022-08-21T17:07:45.611Z,98611.81
2022-08-21T17:10:51.625Z,98611.25
2022-08-21T17:13:57.256Z,98613.66
2022-08-21T17:17:04.430Z,98626.25
2022-08-21T17:20:09.328Z,98628.94
2022-08-21T17:23:12.981Z,98632.41
2022-08-21T17:26:19.529Z,98639.66
2022-08-21T17:29:28.759Z,98636.47
2022-08-21T17:32:32.606Z,98634.63
2022-08-21T17:35:35.852Z,98635.66
2022-08-21T17:38:39.200Z,98631.69
2022-08-21T17:41:43.067Z,98631.66
2022-08-21T17:44:47.854Z,98633.03
2022-08-21T17:47:51.295Z,98640.00
2022-08-21T17:50:54.592Z,98647.19
2022-08-21T17:53:58.428Z,98646.91
2022-08-21T17:57:02.220Z,98652.25
2022-08-21T18:00:09.342Z,98652.53
2022-08-21T18:03:19.583Z,98648.97
2022-08-21T18:06:22.943Z,98657.56
2022-08-21T18:09:28.286Z,98666.38
2022-08-21T18:12:33.354Z,98669.59
2022-08-21T18:15:38.458Z,98673.84
2022-08-21T18:18:44.633Z,98676.97
2022-08-21T18:21:48.029Z,98675.34
2022-08-21T18:24:51.303Z,98671.31
2022-08-21T18:27:54.656Z,98673.41
2022-08-21T18:31:00.033Z,98679.00
2022-08-21T18:34:10.769Z,98685.66
2022-08-21T18:37:14.499Z,98683.53
2022-08-21T18:40:18.156Z,98674.34
2022-08-21T18:43:23.229Z,98678.72
2022-08-21T18:46:27.972Z,98674.19
2022-08-21T18:49:31.337Z,98682.63
2022-08-21T18:52:34.693Z,98675.78
2022-08-21T18:55:38.948Z,98675.66
2022-08-21T18:58:46.045Z,98672.88
2022-08-21T19:01:50.802Z,98671.94
2022-08-21T19:04:54.399Z,98683.53
2022-08-21T19:07:58.772Z,98676.41
2022-08-21T19:11:02.891Z,98687.28
2022-08-21T19:14:11.612Z,98690.28
2022-08-21T19:17:21.655Z,98691.31
2022-08-21T19:20:28.344Z,98685.47
2022-08-21T19:26:55.902Z,98685.25
2022-08-21T19:29:59.450Z,98682.72
2022-08-21T19:33:04.472Z,98687.94
2022-08-21T19:36:11.973Z,98690.19
2022-08-21T19:39:16.055Z,98682.06
2022-08-21T19:42:21.739Z,98681.19
2022-08-21T19:45:28.930Z,98680.16
2022-08-21T19:48:34.225Z,98686.16
2022-08-21T19:51:37.617Z,98681.44
2022-08-21T19:54:41.406Z,98680.94
2022-08-21T19:57:45.815Z,98676.41
2022-08-21T20:00:49.390Z,98694.06
2022-08-21T20:03:57.395Z,98698.47
2022-08-21T20:07:01.176Z,98702.31
2022-08-21T20:10:05.875Z,98705.28
2022-08-21T20:13:09.442Z,98692.06
2022-08-21T20:16:15.301Z,98692.84
2022-08-21T20:19:20.236Z,98695.81
2022-08-21T20:22:24.365Z,98691.44
2022-08-21T20:25:33.460Z,98698.03
2022-08-21T20:32:02.744Z,98707.00
2022-08-21T20:38:33.527Z,98714.03
2022-08-21T20:41:37.188Z,98713.34
2022-08-21T20:44:46.595Z,98706.19
2022-08-21T20:47:52.489Z,98707.59
2022-08-21T20:51:03.940Z,98700.09
2022-08-21T20:54:19.776Z,98706.81
2022-08-21T20:57:34.237Z,98702.38
2022-08-21T21:00:43.255Z,98695.13
2022-08-21T21:03:51.197Z,98693.31
2022-08-21T21:07:00.956Z,98690.06
2022-08-21T21:10:20.365Z,98700.16
2022-08-21T21:13:29.754Z,98702.03
2022-08-21T21:16:37.620Z,98708.50
2022-08-21T21:19:47.868Z,98710.22
2022-08-21T21:22:56.548Z,98701.75
2022-08-21T21:26:06.339Z,98700.38
2022-08-21T21:29:15.804Z,98700.47
2022-08-21T21:32:20.485Z,98695.41
2022-08-21T21:35:32.501Z,98700.72
2022-08-21T21:38:51.438Z,98714.34
2022-08-21T21:42:08.646Z,98711.25
2022-08-21T21:45:20.592Z,98706.34
2022-08-21T21:48:32.381Z,98695.44
2022-08-21T21:51:55.809Z,98693.91
2022-08-21T21:55:18.365Z,98694.31
2022-08-21T21:58:48.370Z,98695.53
2022-08-21T22:02:02.871Z,98690.13
2022-08-21T22:05:15.170Z,98682.09
2022-08-21T22:08:30.044Z,98673.72
2022-08-21T22:11:45.392Z,98666.75
2022-08-21T22:14:48.953Z,98661.06
2022-08-21T22:17:58.165Z,98660.19
2022-08-21T22:21:05.860Z,98655.94
2022-08-21T22:24:15.955Z,98666.75
2022-08-21T22:27:24.177Z,98675.97
2022-08-21T22:30:43.251Z,98684.63
2022-08-21T22:34:03.118Z,98686.88
2022-08-21T22:37:10.139Z,98694.94
2022-08-21T22:40:15.839Z,98685.38
2022-08-21T22:43:23.037Z,98692.56
2022-08-21T22:46:33.899Z,98685.19
2022-08-21T22:49:43.535Z,98688.44
2022-08-21T22:52:50.985Z,98690.06
2022-08-21T22:55:56.567Z,98700.81
2022-08-21T22:59:04.191Z,98699.41
2022-08-21T23:02:19.727Z,98707.94
2022-08-21T23:05:32.543Z,98707.16
2022-08-21T23:08:39.803Z,98704.91
2022-08-21T23:11:44.917Z,98700.22
2022-08-21T23:14:55.872Z,98705.13
2022-08-21T23:21:40.689Z,98715.75
2022-08-21T23:24:56.176Z,98705.88
2022-08-21T23:28:10.431Z,98720.53
2022-08-21T23:31:25.169Z,98713.28
2022-08-21T23:34:39.276Z,98717.81
2022-08-21T23:37:52.027Z,98717.88
2022-08-21T23:41:04.043Z,98713.56
2022-08-21T23:44:26.494Z,98702.94
2022-08-21T23:47:42.211Z,98684.09
2022-08-21T23:50:50.450Z,98679.50
2022-08-21T23:54:00.067Z,98677.88
2022-08-21T23:57:24.947Z,98672.09
